Terminal Aerodrome Forecast
Issued by NWS

Home | Current Version | Previous Version | Text Only | Print | Product List | Glossary On
Versions: 1 2 3 4 5 6 7 8 9 10 11 12 13 14 15 16 17 18 19
000
FTUS44 KCRP 200500
TAFLRD
TAF
KLRD 200536Z 2006/2106 VRB04KT P6SM SCT050 BKN250
      TEMPO 2011/2014 BKN020
     FM201500 09010KT P6SM SCT025 BKN150
     FM201700 10012KT P6SM SCT035 BKN150 PROB30 2020/2101 SHRA
      SCT030=

USA.gov is the U.S. government's official web portal to all federal, state and local government web resources and services.